Time;durP1;ratioP1;P1;durP2;ratioP2;P2;SDS_P1;SDS_P2;PMS_P1;PMS_P2;Temp;Humidity;BMP_temperature;BMP_pressure;BME280_temperature;BME280_humidity;BME280_pressure;Samples;Min_cycle;Max_cycle;Signal;HPM_P1;HPM_P2
2023/01/23 00:03:33;;;;;;;33.33;20.08;;;2.00;99.90;;;;;;7335424;32;20123;-60
2023/01/23 00:07:34;;;;;;;36.00;20.33;;;2.00;99.90;;;;;;7342879;32;20422;-61
2023/01/23 00:11:36;;;;;;;32.60;19.98;;;2.10;99.90;;;;;;7342347;32;20241;-60
2023/01/23 00:15:38;;;;;;;34.92;21.00;;;2.00;99.90;;;;;;7335612;32;20524;-60
2023/01/23 00:19:40;;;;;;;34.75;20.23;;;2.10;99.90;;;;;;7336675;32;20115;-60
2023/01/23 00:23:47;;;;;;;39.78;21.75;;;2.10;99.90;;;;;;7339827;32;20119;-60
2023/01/23 00:27:49;;;;;;;34.08;20.20;;;2.10;99.90;;;;;;7351853;32;20127;-60
2023/01/23 00:31:51;;;;;;;34.35;20.67;;;2.10;99.90;;;;;;7347693;32;20156;-61
2023/01/23 00:35:54;;;;;;;37.95;20.85;;;2.10;99.90;;;;;;7350184;32;20172;-60
2023/01/23 00:39:55;;;;;;;37.42;21.45;;;2.10;99.90;;;;;;7352508;32;20136;-61
2023/01/23 00:43:57;;;;;;;33.05;20.48;;;2.10;99.90;;;;;;7346404;32;20445;-60
2023/01/23 00:47:59;;;;;;;41.00;19.75;;;2.20;99.90;;;;;;7349752;32;20103;-60
2023/01/23 00:52:00;;;;;;;35.38;21.75;;;2.20;99.90;;;;;;7347290;32;20165;-60
2023/01/23 00:56:02;;;;;;;33.00;20.70;;;2.20;99.90;;;;;;7341505;32;20844;-60
2023/01/23 01:00:05;;;;;;;31.92;20.35;;;2.20;99.90;;;;;;7341542;32;20205;-63
2023/01/23 01:04:07;;;;;;;33.88;20.05;;;2.20;99.90;;;;;;7344371;32;20107;-60
2023/01/23 01:08:08;;;;;;;36.72;21.48;;;2.20;99.90;;;;;;7344999;32;20480;-61
2023/01/23 01:12:10;;;;;;;33.75;21.48;;;2.20;99.90;;;;;;7351381;32;20107;-60
2023/01/23 01:16:12;;;;;;;36.47;22.00;;;2.10;99.90;;;;;;7345025;32;20121;-60
2023/01/23 01:20:14;;;;;;;38.20;20.52;;;2.10;99.90;;;;;;7345227;32;20107;-62
2023/01/23 01:24:16;;;;;;;34.42;20.80;;;2.10;99.90;;;;;;7344147;32;20193;-60
2023/01/23 01:28:18;;;;;;;30.50;20.85;;;2.10;99.90;;;;;;7346341;32;20103;-60
2023/01/23 01:32:20;;;;;;;30.25;20.23;;;2.10;99.90;;;;;;7340862;32;20231;-60
2023/01/23 01:36:23;;;;;;;36.33;21.00;;;2.10;99.90;;;;;;7340266;32;20103;-60
2023/01/23 01:40:30;;;;;;;37.65;20.88;;;2.10;99.90;;;;;;7336126;32;20107;-62
2023/01/23 01:44:52;;;;;;;33.10;19.80;;;2.10;99.90;;;;;;7341066;32;20099;-60
2023/01/23 01:49:00;;;;;;;34.25;19.58;;;2.10;99.90;;;;;;7346010;32;20629;-62
2023/01/23 01:53:02;;;;;;;31.45;19.55;;;2.10;99.90;;;;;;7345687;32;20178;-60
2023/01/23 01:57:12;;;;;;;29.23;18.87;;;2.00;99.90;;;;;;7340873;32;20129;-60
2023/01/23 02:01:15;;;;;;;26.05;18.30;;;2.10;99.90;;;;;;7344597;32;20175;-61
2023/01/23 02:05:42;;;;;;;28.33;18.83;;;2.10;99.90;;;;;;7337645;32;20273;-60
2023/01/23 02:09:45;;;;;;;27.50;17.45;;;2.10;99.90;;;;;;7347517;32;20784;-62
2023/01/23 02:13:47;;;;;;;28.17;18.02;;;2.10;99.90;;;;;;7335933;32;20664;-60
2023/01/23 02:17:51;;;;;;;28.17;18.10;;;2.10;99.90;;;;;;7346584;32;20123;-60
2023/01/23 02:22:06;;;;;;;32.08;17.33;;;2.10;99.90;;;;;;7341778;32;20808;-60
2023/01/23 02:26:35;;;;;;;26.02;17.35;;;2.10;99.90;;;;;;7340044;32;20129;-60
2023/01/23 02:30:39;;;;;;;27.13;17.50;;;2.00;99.90;;;;;;7333202;32;20280;-61
2023/01/23 02:34:41;;;;;;;29.48;18.55;;;2.00;99.90;;;;;;7341944;32;20156;-60
2023/01/23 02:39:01;;;;;;;28.85;18.65;;;2.00;99.90;;;;;;7347851;32;20095;-60
2023/01/23 02:43:05;;;;;;;27.00;18.15;;;2.10;99.90;;;;;;7343618;32;20119;-60
2023/01/23 02:47:11;;;;;;;27.37;18.25;;;2.00;99.90;;;;;;7337274;32;20250;-60
2023/01/23 02:51:13;;;;;;;27.08;17.75;;;2.00;99.90;;;;;;7340283;32;20115;-60
2023/01/23 02:55:15;;;;;;;24.73;16.50;;;2.00;99.90;;;;;;7344474;32;20103;-60
2023/01/23 03:03:40;;;;;;;26.40;16.70;;;1.80;99.90;;;;;;7343783;32;21005;-60
2023/01/23 03:07:42;;;;;;;24.65;15.82;;;1.60;99.90;;;;;;7344705;32;20247;-60
2023/01/23 03:11:45;;;;;;;25.23;16.95;;;1.50;99.90;;;;;;7337981;32;20643;-60
2023/01/23 03:15:51;;;;;;;27.15;17.45;;;1.40;99.90;;;;;;7343030;32;20205;-60
2023/01/23 03:19:56;;;;;;;27.02;17.48;;;1.40;99.90;;;;;;7333296;32;20127;-60
2023/01/23 03:23:58;;;;;;;27.85;17.33;;;1.40;99.90;;;;;;7327017;32;20202;-60
2023/01/23 03:28:00;;;;;;;26.45;17.55;;;1.40;99.90;;;;;;7338042;32;20234;-61
2023/01/23 03:32:02;;;;;;;31.73;18.17;;;1.40;99.90;;;;;;7339588;32;20103;-60
2023/01/23 03:36:07;;;;;;;29.05;17.98;;;1.30;99.90;;;;;;7341704;32;20606;-61
2023/01/23 03:44:39;;;;;;;28.62;18.27;;;1.40;99.90;;;;;;7342339;32;20157;-59
2023/01/23 03:48:40;;;;;;;28.95;18.00;;;1.50;99.90;;;;;;7337746;32;20655;-60
2023/01/23 03:52:42;;;;;;;28.90;18.10;;;1.50;99.90;;;;;;7337191;32;20659;-60
2023/01/23 03:56:44;;;;;;;27.35;18.60;;;1.60;99.90;;;;;;7342075;32;20558;-61
2023/01/23 04:00:46;;;;;;;25.85;17.75;;;1.60;99.90;;;;;;7346773;32;20575;-60
2023/01/23 04:04:47;;;;;;;27.27;18.02;;;1.60;99.90;;;;;;7350165;32;20386;-60
2023/01/23 04:08:49;;;;;;;29.17;18.48;;;1.60;99.90;;;;;;7350019;32;20773;-59
2023/01/23 04:12:51;;;;;;;28.58;17.33;;;1.70;99.90;;;;;;7350763;32;20178;-60
2023/01/23 04:16:52;;;;;;;30.55;19.62;;;1.70;99.90;;;;;;7347151;32;20179;-60
2023/01/23 04:20:55;;;;;;;31.08;18.77;;;1.70;99.90;;;;;;7343232;32;20115;-60
2023/01/23 04:24:56;;;;;;;32.55;19.35;;;1.70;99.90;;;;;;7350547;32;20488;-59
2023/01/23 04:28:58;;;;;;;34.13;20.17;;;1.60;99.90;;;;;;7340193;32;20115;-60
2023/01/23 04:33:00;;;;;;;32.35;19.95;;;1.50;99.90;;;;;;7348770;32;20231;-60
2023/01/23 04:37:01;;;;;;;30.45;18.98;;;1.50;99.90;;;;;;7349293;32;20788;-59
2023/01/23 04:41:03;;;;;;;33.88;20.95;;;1.50;99.90;;;;;;7346737;32;20120;-60
2023/01/23 04:45:08;;;;;;;33.83;20.10;;;1.50;99.90;;;;;;7348068;32;20145;-60
2023/01/23 04:49:10;;;;;;;34.35;19.67;;;1.60;99.90;;;;;;7345568;32;20129;-60
2023/01/23 04:53:12;;;;;;;30.80;19.85;;;1.50;99.90;;;;;;7338768;32;20310;-60
2023/01/23 04:57:14;;;;;;;34.47;19.95;;;1.60;99.90;;;;;;7346977;32;20175;-61
2023/01/23 05:01:21;;;;;;;28.60;18.87;;;1.70;99.90;;;;;;7349177;32;20140;-60
2023/01/23 05:05:25;;;;;;;32.53;19.60;;;1.60;99.90;;;;;;7339858;32;20202;-60
2023/01/23 05:09:26;;;;;;;30.70;18.83;;;1.60;99.90;;;;;;7341441;32;20348;-60
2023/01/23 05:13:28;;;;;;;29.67;18.35;;;1.50;99.90;;;;;;7333750;32;20223;-59
2023/01/23 05:17:30;;;;;;;30.30;18.85;;;1.40;99.90;;;;;;7339832;32;20201;-59
2023/01/23 05:21:32;;;;;;;28.02;17.10;;;1.40;99.90;;;;;;7337105;32;20098;-60
2023/01/23 05:25:34;;;;;;;29.52;17.80;;;1.40;99.90;;;;;;7347448;32;20583;-59
2023/01/23 05:29:36;;;;;;;28.80;17.65;;;1.50;99.90;;;;;;7344187;32;20186;-60
2023/01/23 05:33:39;;;;;;;25.65;16.87;;;1.50;99.90;;;;;;7338295;32;20121;-60
2023/01/23 05:37:41;;;;;;;25.62;15.52;;;1.50;99.90;;;;;;7338264;32;20103;-59
2023/01/23 05:41:42;;;;;;;22.75;13.75;;;1.60;99.90;;;;;;7338236;32;20592;-61
2023/01/23 05:45:44;;;;;;;22.50;14.15;;;1.60;99.90;;;;;;7348553;32;20808;-63
2023/01/23 05:49:46;;;;;;;24.50;14.93;;;1.60;99.90;;;;;;7348564;32;20510;-60
2023/01/23 05:53:48;;;;;;;26.58;16.20;;;1.50;99.90;;;;;;7341137;32;20303;-59
2023/01/23 05:57:49;;;;;;;24.17;14.18;;;1.40;99.90;;;;;;7349495;32;20169;-59
2023/01/23 06:01:51;;;;;;;25.85;15.35;;;1.40;99.90;;;;;;7348444;32;20166;-60
2023/01/23 06:05:53;;;;;;;26.02;15.95;;;1.30;99.90;;;;;;7348802;32;20480;-60
2023/01/23 06:09:54;;;;;;;25.37;15.50;;;1.20;99.90;;;;;;7341557;32;20212;-60
2023/01/23 06:13:56;;;;;;;22.55;13.93;;;1.20;99.90;;;;;;7342882;32;20377;-59
2023/01/23 06:17:58;;;;;;;24.55;14.25;;;1.20;99.90;;;;;;7340744;32;20220;-60
2023/01/23 06:21:59;;;;;;;23.27;15.00;;;1.10;99.90;;;;;;7344348;32;20287;-59
2023/01/23 06:26:02;;;;;;;25.55;15.27;;;1.10;99.90;;;;;;7342194;32;20106;-60
2023/01/23 06:30:05;;;;;;;23.35;15.43;;;1.10;99.90;;;;;;7335989;32;20119;-60
2023/01/23 06:34:07;;;;;;;24.35;15.82;;;1.20;99.90;;;;;;7335902;32;20246;-60
2023/01/23 06:38:09;;;;;;;24.77;15.65;;;1.20;99.90;;;;;;7338797;32;20636;-60
2023/01/23 06:42:10;;;;;;;27.13;16.75;;;1.30;99.90;;;;;;7341663;32;20256;-59
2023/01/23 06:46:12;;;;;;;29.27;17.58;;;1.40;99.90;;;;;;7339196;32;20157;-59
2023/01/23 06:50:15;;;;;;;25.83;16.02;;;1.40;99.90;;;;;;7334631;32;20111;-60
2023/01/23 06:54:17;;;;;;;25.23;15.88;;;1.50;99.90;;;;;;7346086;32;20107;-59
2023/01/23 06:58:19;;;;;;;27.65;16.15;;;1.60;99.90;;;;;;7345960;32;20750;-60
2023/01/23 07:02:21;;;;;;;25.80;15.82;;;1.70;99.90;;;;;;7346281;32;20208;-59
2023/01/23 07:06:23;;;;;;;27.58;16.20;;;1.70;99.90;;;;;;7336540;32;20129;-62
2023/01/23 07:10:25;;;;;;;24.23;14.65;;;1.70;99.90;;;;;;7325729;32;20636;-62
2023/01/23 07:14:27;;;;;;;27.37;15.82;;;1.70;99.90;;;;;;7337610;32;20099;-61
2023/01/23 07:18:29;;;;;;;25.52;15.25;;;1.80;99.90;;;;;;7334845;32;20111;-60
2023/01/23 07:22:31;;;;;;;26.67;15.75;;;1.80;99.90;;;;;;7334866;32;20325;-60
2023/01/23 07:26:32;;;;;;;26.37;15.82;;;1.80;99.90;;;;;;7339275;32;20168;-62
2023/01/23 07:30:34;;;;;;;25.70;16.40;;;1.80;99.90;;;;;;7334608;32;20776;-62
2023/01/23 07:34:36;;;;;;;28.52;15.73;;;1.90;99.90;;;;;;7338004;32;20167;-61
2023/01/23 07:38:38;;;;;;;28.30;17.15;;;1.90;99.90;;;;;;7331137;32;20117;-62
2023/01/23 07:42:40;;;;;;;27.85;15.98;;;1.90;99.90;;;;;;7340028;32;20102;-63
2023/01/23 07:46:43;;;;;;;28.08;15.85;;;1.90;99.90;;;;;;7335487;32;20516;-63
2023/01/23 07:50:45;;;;;;;25.25;15.88;;;1.90;99.90;;;;;;7342655;32;20115;-63
2023/01/23 07:54:46;;;;;;;22.87;14.75;;;2.00;99.90;;;;;;7342530;32;20110;-64
2023/01/23 07:58:50;;;;;;;27.15;17.40;;;2.00;99.90;;;;;;7341375;32;20157;-63
2023/01/23 08:02:51;;;;;;;27.52;16.70;;;2.00;99.90;;;;;;7342416;32;20713;-64
2023/01/23 08:06:53;;;;;;;22.83;14.80;;;2.00;99.90;;;;;;7339278;32;20157;-61
2023/01/23 08:10:55;;;;;;;25.60;15.02;;;2.10;99.90;;;;;;7338457;32;20637;-63
2023/01/23 08:14:56;;;;;;;29.17;17.30;;;2.10;99.90;;;;;;7343517;32;20551;-63
2023/01/23 08:18:58;;;;;;;29.73;17.65;;;2.10;99.90;;;;;;7339910;32;20313;-62
2023/01/23 08:23:01;;;;;;;28.17;17.08;;;2.10;99.90;;;;;;7340336;32;20169;-61
2023/01/23 08:27:03;;;;;;;28.33;16.73;;;2.20;99.90;;;;;;7338602;32;20202;-61
2023/01/23 08:31:07;;;;;;;32.00;17.80;;;2.20;99.90;;;;;;7337108;32;20128;-62
2023/01/23 08:35:09;;;;;;;28.35;16.70;;;2.20;99.90;;;;;;7341241;32;20573;-61
2023/01/23 08:39:11;;;;;;;27.95;17.08;;;2.30;99.90;;;;;;7341256;32;20211;-61
2023/01/23 08:43:13;;;;;;;29.23;17.62;;;2.30;99.90;;;;;;7337288;32;20103;-60
2023/01/23 08:47:15;;;;;;;31.48;18.00;;;2.30;99.90;;;;;;7337885;32;20103;-61
2023/01/23 08:51:17;;;;;;;28.30;16.37;;;2.30;99.90;;;;;;7344767;32;20111;-61
2023/01/23 08:55:19;;;;;;;29.83;17.83;;;2.40;99.90;;;;;;7341509;32;20107;-62
2023/01/23 08:59:21;;;;;;;28.85;18.33;;;2.50;99.90;;;;;;7342570;32;20234;-61
2023/01/23 09:03:24;;;;;;;30.17;18.42;;;2.60;99.90;;;;;;7346542;32;20850;-61
2023/01/23 09:07:25;;;;;;;27.75;16.00;;;2.50;99.90;;;;;;7336948;32;20441;-61
2023/01/23 09:11:27;;;;;;;31.95;18.45;;;2.50;99.90;;;;;;7341893;32;20198;-62
2023/01/23 09:15:29;;;;;;;26.87;17.33;;;2.50;99.90;;;;;;7336017;32;20216;-63
2023/01/23 09:19:31;;;;;;;29.10;15.15;;;2.50;99.90;;;;;;7343983;32;20126;-60
2023/01/23 09:23:33;;;;;;;26.67;15.95;;;2.60;99.90;;;;;;7337885;32;20180;-62
2023/01/23 09:27:35;;;;;;;26.60;16.12;;;2.50;99.90;;;;;;7343986;32;20127;-61
2023/01/23 09:31:37;;;;;;;26.35;15.10;;;2.60;99.90;;;;;;7338248;32;20103;-61
2023/01/23 09:35:38;;;;;;;25.27;14.43;;;2.60;99.90;;;;;;7347898;32;20260;-61
2023/01/23 09:39:43;;;;;;;24.42;14.35;;;2.50;99.90;;;;;;7346381;32;20147;-60
2023/01/23 09:43:45;;;;;;;25.52;14.05;;;2.60;99.90;;;;;;7341650;32;20628;-62
2023/01/23 09:47:54;;;;;;;25.12;13.98;;;2.70;99.90;;;;;;7337972;32;20178;-61
2023/01/23 09:52:06;;;;;;;17.95;11.80;;;2.80;99.90;;;;;;7341587;32;20178;-60
2023/01/23 09:56:34;;;;;;;17.27;11.35;;;2.80;99.90;;;;;;7345894;32;20099;-61
2023/01/23 10:00:35;;;;;;;;;;;2.90;99.90;;;;;;7338789;32;20287;-61
2023/01/23 10:04:37;;;;;;;19.52;12.68;;;2.90;99.90;;;;;;7339563;32;20112;-61
2023/01/23 10:08:45;;;;;;;19.50;12.20;;;2.90;99.90;;;;;;7342971;32;20166;-60
2023/01/23 10:13:24;;;;;;;20.65;12.40;;;2.90;99.90;;;;;;7337786;32;20260;-61
2023/01/23 10:17:51;;;;;;;19.40;12.05;;;2.90;99.90;;;;;;7346143;32;20115;-61
2023/01/23 10:22:15;;;;;;;19.75;12.37;;;3.00;99.90;;;;;;7347049;32;20142;-60
2023/01/23 10:26:28;;;;;;;19.10;11.95;;;3.00;99.90;;;;;;7336813;32;20218;-61
2023/01/23 10:30:37;;;;;;;20.27;12.45;;;3.00;99.90;;;;;;7341162;32;20894;-60
2023/01/23 10:35:11;;;;;;;18.52;12.20;;;3.10;99.90;;;;;;7339899;32;20121;-61
2023/01/23 10:39:23;;;;;;;19.35;11.98;;;3.20;99.90;;;;;;7342074;32;20160;-60
2023/01/23 10:43:26;;;;;;;20.70;12.77;;;3.20;99.90;;;;;;7336088;32;20201;-61
2023/01/23 10:47:45;;;;;;;17.85;10.98;;;3.20;99.90;;;;;;7343826;32;20112;-61
2023/01/23 10:51:52;;;;;;;20.92;12.32;;;3.10;99.90;;;;;;7337831;32;20187;-62
2023/01/23 10:55:57;;;;;;;20.62;11.63;;;3.00;99.90;;;;;;7337343;32;20124;-61
2023/01/23 11:00:07;;;;;;;21.12;12.65;;;3.10;99.90;;;;;;7343053;32;20333;-61
2023/01/23 11:04:24;;;;;;;18.35;11.60;;;3.10;99.90;;;;;;7339891;32;20178;-62
2023/01/23 11:08:28;;;;;;;;;;;3.20;99.90;;;;;;7340740;32;20439;-62
2023/01/23 11:12:32;;;;;;;18.77;11.93;;;3.10;99.90;;;;;;7335647;32;20766;-62
2023/01/23 11:16:34;;;;;;;17.83;11.12;;;3.10;99.90;;;;;;7339480;32;20276;-63
2023/01/23 11:20:39;;;;;;;16.62;10.95;;;3.20;99.90;;;;;;7344989;32;20445;-62
2023/01/23 11:24:41;;;;;;;17.37;10.98;;;3.20;99.90;;;;;;7341382;32;20178;-63
2023/01/23 11:28:48;;;;;;;17.17;10.93;;;3.10;99.90;;;;;;7342992;32;20292;-63
2023/01/23 11:32:53;;;;;;;;;;;3.20;99.90;;;;;;7338376;32;20300;-60
2023/01/23 11:37:17;;;;;;;19.17;11.30;;;3.20;99.90;;;;;;7343385;32;20029;-61
2023/01/23 11:41:21;;;;;;;15.70;10.43;;;3.40;99.90;;;;;;7336739;32;20106;-61
2023/01/23 11:45:37;;;;;;;16.37;10.57;;;3.30;99.90;;;;;;7336016;32;20804;-62
2023/01/23 11:50:04;;;;;;;16.90;10.60;;;3.40;99.90;;;;;;7344666;32;20575;-60
2023/01/23 11:54:24;;;;;;;18.55;10.07;;;3.40;99.90;;;;;;7328908;32;20779;-61
2023/01/23 11:58:57;;;;;;;14.80;10.05;;;3.50;99.90;;;;;;7342346;32;20166;-61
2023/01/23 12:03:26;;;;;;;13.60;9.93;;;3.60;99.90;;;;;;7343804;32;20115;-61
2023/01/23 12:07:52;;;;;;;14.20;9.93;;;3.70;99.90;;;;;;7329940;32;20099;-62
2023/01/23 12:12:23;;;;;;;16.30;10.23;;;3.70;99.90;;;;;;7335386;32;20529;-60
2023/01/23 12:16:47;;;;;;;15.05;10.13;;;3.60;99.90;;;;;;7334162;32;20131;-61
2023/01/23 12:20:56;;;;;;;15.25;10.25;;;3.60;99.90;;;;;;7329838;32;20094;-62
2023/01/23 12:25:34;;;;;;;13.80;8.70;;;3.60;99.90;;;;;;7342416;32;20182;-60
2023/01/23 12:29:53;;;;;;;13.83;9.27;;;3.70;99.90;;;;;;7341734;32;20157;-60
2023/01/23 12:34:13;;;;;;;15.75;9.48;;;3.80;99.90;;;;;;7341385;32;20454;-62
2023/01/23 12:38:34;;;;;;;12.00;8.65;;;3.90;99.90;;;;;;7340063;32;20133;-63
2023/01/23 12:43:10;;;;;;;12.45;8.77;;;3.90;99.90;;;;;;7346865;32;20137;-61
2023/01/23 12:47:18;;;;;;;12.88;8.10;;;3.90;99.90;;;;;;7347663;32;20151;-61
2023/01/23 12:51:25;;;;;;;10.45;7.53;;;3.90;99.90;;;;;;7340263;32;20224;-61
2023/01/23 12:55:36;;;;;;;10.05;7.37;;;4.00;99.90;;;;;;7346397;32;20249;-60
2023/01/23 13:00:02;;;;;;;10.75;7.47;;;3.90;99.90;;;;;;7339382;32;20166;-62
2023/01/23 13:04:04;;;;;;;10.35;7.45;;;3.80;99.90;;;;;;7345287;32;20250;-61
2023/01/23 13:08:27;;;;;;;10.00;7.28;;;3.90;99.90;;;;;;7341261;32;20217;-62
2023/01/23 13:12:30;;;;;;;10.88;7.70;;;3.90;99.90;;;;;;7338600;32;20202;-60
2023/01/23 13:16:32;;;;;;;11.95;8.15;;;3.90;99.90;;;;;;7339926;32;20171;-60
2023/01/23 13:25:18;;;;;;;10.45;7.57;;;3.70;99.90;;;;;;7338189;32;20099;-60
2023/01/23 13:29:57;;;;;;;13.02;8.23;;;3.60;99.90;;;;;;7337804;32;20264;-60
2023/01/23 13:34:01;;;;;;;11.35;7.75;;;3.60;99.90;;;;;;7344572;32;20268;-58
2023/01/23 13:38:28;;;;;;;11.63;8.00;;;3.60;99.90;;;;;;7342888;32;20497;-59
2023/01/23 13:42:33;;;;;;;12.15;7.85;;;3.50;99.90;;;;;;7338091;32;20241;-59
2023/01/23 13:46:40;;;;;;;11.02;8.05;;;3.50;99.90;;;;;;7338337;32;20139;-60
2023/01/23 13:51:17;;;;;;;13.62;9.15;;;3.40;99.90;;;;;;7284727;32;20632;-59
2023/01/23 14:00:22;;;;;;;12.27;8.73;;;3.50;99.90;;;;;;7117723;33;20129;-60
2023/01/23 14:05:11;;;;;;;14.30;8.73;;;3.40;99.90;;;;;;7025819;33;20154;-60
2023/01/23 14:09:30;;;;;;;12.23;8.23;;;3.40;99.90;;;;;;6953419;34;21986;-59
2023/01/23 14:16:08;;;;;;;12.93;8.43;;;3.50;99.90;;;;;;6926388;34;20121;-58
2023/01/23 14:18:31;;;;;;;12.30;8.88;;;3.40;99.90;;;;;;6928340;33;20545;-59
2023/01/23 14:22:47;;;;;;;11.88;8.48;;;3.50;99.90;;;;;;6982926;33;20617;-59
2023/01/23 14:26:51;;;;;;;13.20;9.13;;;3.50;99.90;;;;;;7017395;33;20190;-60
2023/01/23 14:30:58;;;;;;;14.05;9.02;;;3.50;99.90;;;;;;7096675;33;20149;-60
2023/01/23 14:35:00;;;;;;;12.60;8.70;;;3.50;99.90;;;;;;7146290;33;20221;-59
2023/01/23 14:39:03;;;;;;;14.20;8.63;;;3.40;99.90;;;;;;7232434;32;20124;-59
2023/01/23 14:43:07;;;;;;;13.25;8.80;;;3.40;99.90;;;;;;7305081;32;21086;-60
2023/01/23 14:47:22;;;;;;;11.12;8.45;;;3.40;99.90;;;;;;7340545;32;20100;-60
2023/01/23 14:51:25;;;;;;;12.45;8.20;;;3.40;99.90;;;;;;7337154;32;20100;-60
2023/01/23 14:55:28;;;;;;;11.02;7.87;;;3.40;99.90;;;;;;7335287;32;20137;-59
2023/01/23 14:59:35;;;;;;;11.68;8.50;;;3.30;99.90;;;;;;7330979;32;20147;-59
2023/01/23 15:03:54;;;;;;;12.02;7.70;;;3.30;99.90;;;;;;7331784;32;20315;-61
2023/01/23 15:08:02;;;;;;;10.95;7.82;;;3.20;99.90;;;;;;7336743;32;20222;-61
2023/01/23 15:12:15;;;;;;;12.45;8.48;;;3.20;99.90;;;;;;7336223;32;20222;-60
2023/01/23 15:16:37;;;;;;;10.07;6.78;;;3.20;99.90;;;;;;7332112;32;20175;-60
2023/01/23 15:20:40;;;;;;;12.35;8.07;;;3.10;99.90;;;;;;7338273;32;20583;-60
2023/01/23 15:24:42;;;;;;;8.68;6.82;;;3.10;99.90;;;;;;7343777;32;20129;-61
2023/01/23 15:29:20;;;;;;;10.90;7.50;;;3.10;99.90;;;;;;7341137;32;20225;-59
2023/01/23 15:33:30;;;;;;;7.37;6.12;;;3.10;99.90;;;;;;7328147;32;20164;-60
2023/01/23 15:37:33;;;;;;;11.48;7.30;;;3.10;99.90;;;;;;7339375;32;20123;-60
2023/01/23 15:41:48;;;;;;;10.93;7.53;;;3.10;99.90;;;;;;7343845;32;20108;-60
2023/01/23 15:45:50;;;;;;;10.75;7.10;;;3.10;99.90;;;;;;7342744;32;20131;-60
2023/01/23 15:49:52;;;;;;;10.43;7.22;;;3.10;99.90;;;;;;7341111;32;20130;-60
2023/01/23 15:53:54;;;;;;;13.23;7.80;;;3.10;99.90;;;;;;7345714;32;20563;-61
2023/01/23 15:57:55;;;;;;;10.82;7.93;;;3.10;99.90;;;;;;7339587;32;20135;-60
2023/01/23 16:01:57;;;;;;;9.85;7.07;;;3.10;99.90;;;;;;7343876;32;20200;-60
2023/01/23 16:05:59;;;;;;;11.00;8.20;;;3.00;99.90;;;;;;7340112;32;20902;-61
2023/01/23 16:10:27;;;;;;;10.70;7.53;;;3.00;99.90;;;;;;7339791;32;20280;-60
2023/01/23 16:14:28;;;;;;;11.38;8.02;;;3.00;99.90;;;;;;7334203;32;20126;-59
2023/01/23 16:18:30;;;;;;;10.75;7.55;;;2.90;99.90;;;;;;7334968;32;20431;-61
2023/01/23 16:22:34;;;;;;;10.50;7.43;;;2.90;99.90;;;;;;7335873;32;20168;-59
2023/01/23 16:26:35;;;;;;;10.75;6.90;;;2.80;99.90;;;;;;7336394;32;20249;-59
2023/01/23 16:30:37;;;;;;;12.27;7.85;;;2.90;99.90;;;;;;7338125;32;20130;-59
2023/01/23 16:34:39;;;;;;;10.98;7.43;;;2.80;99.90;;;;;;7339651;32;20269;-60
2023/01/23 16:38:49;;;;;;;10.15;7.28;;;2.80;99.90;;;;;;7339058;32;20095;-59
2023/01/23 16:42:52;;;;;;;13.00;8.07;;;2.80;99.90;;;;;;7337520;32;20269;-59
2023/01/23 16:46:54;;;;;;;10.73;7.85;;;2.80;99.90;;;;;;7340178;32;20718;-59
2023/01/23 16:51:01;;;;;;;12.45;8.82;;;2.70;99.90;;;;;;7338184;32;20152;-59
2023/01/23 16:55:16;;;;;;;13.02;8.80;;;2.70;99.90;;;;;;7340876;32;20138;-59
2023/01/23 16:59:30;;;;;;;24.73;19.87;;;2.70;99.90;;;;;;7339124;32;20111;-59
2023/01/23 17:03:35;;;;;;;17.62;11.12;;;2.80;99.90;;;;;;7333654;32;20169;-59
2023/01/23 17:07:37;;;;;;;21.17;14.98;;;2.70;99.90;;;;;;7335167;32;20221;-59
2023/01/23 17:11:41;;;;;;;16.35;10.57;;;2.70;99.90;;;;;;7340067;32;20129;-60
2023/01/23 17:15:44;;;;;;;14.50;10.45;;;2.70;99.90;;;;;;7344889;32;20129;-60
2023/01/23 17:19:46;;;;;;;15.23;10.35;;;2.60;99.90;;;;;;7345726;32;20095;-60
2023/01/23 17:23:48;;;;;;;13.60;10.10;;;2.70;99.90;;;;;;7340389;32;20186;-62
2023/01/23 17:27:51;;;;;;;15.00;10.60;;;2.60;99.90;;;;;;7335209;32;20631;-60
2023/01/23 17:32:34;;;;;;;13.40;9.45;;;2.60;99.90;;;;;;7335377;32;20225;-59
2023/01/23 17:36:35;;;;;;;14.00;10.25;;;2.70;99.90;;;;;;7341795;32;20141;-61
2023/01/23 17:40:39;;;;;;;21.62;15.25;;;2.70;99.90;;;;;;7339964;32;20149;-61
2023/01/23 17:44:41;;;;;;;17.87;11.18;;;2.70;99.90;;;;;;7343849;32;20911;-61
2023/01/23 17:48:42;;;;;;;16.70;11.70;;;2.60;99.90;;;;;;7338962;32;20103;-62
2023/01/23 17:52:45;;;;;;;19.62;11.90;;;2.60;99.90;;;;;;7337091;32;20588;-62
2023/01/23 17:56:47;;;;;;;17.95;12.73;;;2.60;99.90;;;;;;7346535;32;20523;-61
2023/01/23 18:00:52;;;;;;;18.52;13.43;;;2.60;99.90;;;;;;7340380;32;20099;-60
2023/01/23 18:04:54;;;;;;;16.58;12.32;;;2.60;99.90;;;;;;7341266;32;20181;-63
2023/01/23 18:08:56;;;;;;;16.98;12.18;;;2.60;99.90;;;;;;7337921;32;20158;-61
2023/01/23 18:13:23;;;;;;;23.10;15.25;;;2.60;99.90;;;;;;7339642;32;20115;-62
2023/01/23 18:17:35;;;;;;;;;;;2.60;99.90;;;;;;7342398;32;20107;-61
2023/01/23 18:21:37;;;;;;;18.62;13.07;;;2.60;99.90;;;;;;7338596;32;20428;-61
2023/01/23 18:25:44;;;;;;;21.48;13.18;;;2.60;99.90;;;;;;7342527;32;20150;-60
2023/01/23 18:30:07;;;;;;;20.15;12.18;;;2.60;99.90;;;;;;7345754;32;20225;-62
2023/01/23 18:34:27;;;;;;;20.88;13.32;;;2.60;99.90;;;;;;7343291;32;20107;-61
2023/01/23 18:39:00;;;;;;;17.95;11.60;;;2.60;99.90;;;;;;7337603;32;20195;-59
2023/01/23 18:43:13;;;;;;;16.27;11.52;;;2.60;99.90;;;;;;7337821;32;20547;-60
2023/01/23 18:47:15;;;;;;;17.45;11.02;;;2.60;99.90;;;;;;7344564;32;20564;-61
2023/01/23 18:51:38;;;;;;;15.73;11.20;;;2.60;99.90;;;;;;7343989;32;20111;-61
2023/01/23 18:56:13;;;;;;;17.05;12.30;;;2.60;99.90;;;;;;7346044;32;20134;-61
2023/01/23 19:00:26;;;;;;;19.25;13.00;;;2.60;99.90;;;;;;7340583;32;20176;-62
2023/01/23 19:04:45;;;;;;;16.92;11.85;;;2.60;99.90;;;;;;7346486;32;20230;-60
2023/01/23 19:08:49;;;;;;;17.70;12.73;;;2.60;99.90;;;;;;7340998;32;20103;-60
2023/01/23 19:13:20;;;;;;;16.20;11.95;;;2.70;99.90;;;;;;7341745;32;20182;-60
2023/01/23 19:17:21;;;;;;;17.70;12.02;;;2.60;99.90;;;;;;7341556;32;20297;-59
2023/01/23 19:21:27;;;;;;;16.33;12.93;;;2.60;99.90;;;;;;7340515;32;20229;-60
2023/01/23 19:25:29;;;;;;;18.10;12.57;;;2.60;99.90;;;;;;7335145;32;20182;-60
2023/01/23 19:29:30;;;;;;;18.40;12.70;;;2.70;99.90;;;;;;7344202;32;20524;-60
2023/01/23 19:33:32;;;;;;;17.05;11.60;;;2.70;99.90;;;;;;7338052;32;20217;-61
2023/01/23 19:37:38;;;;;;;20.75;13.38;;;2.70;99.90;;;;;;7337582;32;20206;-61
2023/01/23 19:41:48;;;;;;;18.37;11.73;;;2.70;99.90;;;;;;7333859;32;20182;-62
2023/01/23 19:45:49;;;;;;;17.77;12.60;;;2.60;99.90;;;;;;7333629;32;20111;-60
2023/01/23 19:49:51;;;;;;;18.77;11.82;;;2.60;99.90;;;;;;7335713;32;20724;-61
2023/01/23 19:53:53;;;;;;;17.25;12.10;;;2.60;99.90;;;;;;7334100;32;20226;-60
2023/01/23 19:57:56;;;;;;;18.30;14.15;;;2.60;99.90;;;;;;7338445;32;20107;-60
2023/01/23 20:01:57;;;;;;;19.40;13.85;;;2.70;99.90;;;;;;7342422;32;20178;-61
2023/01/23 20:05:59;;;;;;;19.75;13.15;;;2.70;99.90;;;;;;7335310;32;20406;-60
2023/01/23 20:10:01;;;;;;;15.40;11.00;;;2.60;99.90;;;;;;7340199;32;20212;-60
2023/01/23 20:14:03;;;;;;;13.57;9.57;;;2.70;99.90;;;;;;7333448;32;20198;-60
2023/01/23 20:18:05;;;;;;;15.00;10.65;;;2.70;99.90;;;;;;7340771;32;20203;-62
2023/01/23 20:22:06;;;;;;;18.73;11.82;;;2.70;99.90;;;;;;7337707;32;20103;-60
2023/01/23 20:26:08;;;;;;;18.50;12.52;;;2.70;99.90;;;;;;7341510;32;20103;-62
2023/01/23 20:30:16;;;;;;;15.50;11.43;;;2.60;99.90;;;;;;7339480;32;20249;-60
2023/01/23 20:34:17;;;;;;;15.70;11.57;;;2.70;99.90;;;;;;7343458;32;20222;-60
2023/01/23 20:38:20;;;;;;;17.73;12.23;;;2.60;99.90;;;;;;7335870;32;20177;-59
2023/01/23 20:42:21;;;;;;;17.95;12.00;;;2.70;99.90;;;;;;7334877;32;20197;-63
2023/01/23 20:46:25;;;;;;;25.77;18.30;;;2.70;99.90;;;;;;7343081;32;20175;-60
2023/01/23 20:50:27;;;;;;;18.02;12.63;;;2.70;99.90;;;;;;7338275;32;20129;-60
2023/01/23 20:54:29;;;;;;;16.87;11.90;;;2.70;99.90;;;;;;7342618;32;20178;-61
2023/01/23 21:02:52;;;;;;;15.20;10.65;;;2.70;99.90;;;;;;7339566;32;20223;-61
2023/01/23 21:06:54;;;;;;;16.98;11.35;;;2.70;99.90;;;;;;7343441;32;20526;-61
2023/01/23 21:10:55;;;;;;;14.40;10.02;;;2.70;99.90;;;;;;7342746;32;20553;-62
2023/01/23 21:14:57;;;;;;;14.55;9.93;;;2.80;99.90;;;;;;7340796;32;20096;-60
2023/01/23 21:19:00;;;;;;;13.23;9.77;;;2.80;99.90;;;;;;7349257;32;20111;-61
2023/01/23 21:23:01;;;;;;;13.48;9.57;;;2.80;99.90;;;;;;7350988;32;20649;-61
2023/01/23 21:27:04;;;;;;;15.45;10.93;;;2.80;99.90;;;;;;7344598;32;20560;-61
2023/01/23 21:31:13;;;;;;;13.40;9.23;;;2.80;99.90;;;;;;7343138;32;20148;-62
2023/01/23 21:35:15;;;;;;;13.70;9.52;;;2.80;99.90;;;;;;7343807;32;20254;-62
2023/01/23 21:39:18;;;;;;;13.35;9.75;;;2.80;99.90;;;;;;7344345;32;20130;-61